sensor_id;sensor_type;location;lat;lon;timestamp;P1;durP1;ratioP1;P2;durP2;ratioP2
16673;SDS011;8450;52.654;10.326;2023-07-13T06:24:25;5.57;;;3.20;;
16673;SDS011;8450;52.654;10.326;2023-07-13T06:26:51;7.70;;;2.70;;
16673;SDS011;8450;52.654;10.326;2023-07-13T06:29:16;6.70;;;3.33;;
16673;SDS011;8450;52.654;10.326;2023-07-13T06:31:42;7.00;;;3.23;;
16673;SDS011;8450;52.654;10.326;2023-07-13T06:34:08;4.60;;;3.20;;
16673;SDS011;8450;52.654;10.326;2023-07-13T06:36:33;7.47;;;2.77;;
16673;SDS011;8450;52.654;10.326;2023-07-13T06:39:01;4.70;;;2.83;;
16673;SDS011;8450;52.654;10.326;2023-07-13T06:41:27;5.10;;;2.70;;
16673;SDS011;8450;52.654;10.326;2023-07-13T06:43:52;4.03;;;2.50;;
16673;SDS011;8450;52.654;10.326;2023-07-13T06:46:19;7.00;;;2.90;;
16673;SDS011;8450;52.654;10.326;2023-07-13T07:09:22;6.73;;;2.73;;
16673;SDS011;8450;52.654;10.326;2023-07-13T07:11:47;7.83;;;2.97;;
16673;SDS011;8450;52.654;10.326;2023-07-13T07:14:13;6.20;;;2.67;;
16673;SDS011;8450;52.654;10.326;2023-07-13T07:16:38;6.77;;;3.00;;
16673;SDS011;8450;52.654;10.326;2023-07-13T07:19:04;4.50;;;2.70;;
16673;SDS011;8450;52.654;10.326;2023-07-13T07:21:29;4.83;;;2.63;;
16673;SDS011;8450;52.654;10.326;2023-07-13T07:23:56;7.40;;;3.47;;
16673;SDS011;8450;52.654;10.326;2023-07-13T07:26:22;5.67;;;3.13;;
16673;SDS011;8450;52.654;10.326;2023-07-13T07:28:47;6.80;;;2.80;;
16673;SDS011;8450;52.654;10.326;2023-07-13T07:31:13;4.30;;;2.70;;
16673;SDS011;8450;52.654;10.326;2023-07-13T07:33:38;5.77;;;2.90;;
16673;SDS011;8450;52.654;10.326;2023-07-13T07:36:04;5.07;;;3.00;;
16673;SDS011;8450;52.654;10.326;2023-07-13T07:38:30;7.23;;;3.00;;
16673;SDS011;8450;52.654;10.326;2023-07-13T07:40:55;4.73;;;2.83;;
16673;SDS011;8450;52.654;10.326;2023-07-13T07:43:21;4.77;;;2.57;;
16673;SDS011;8450;52.654;10.326;2023-07-13T07:45:46;6.10;;;2.97;;
16673;SDS011;8450;52.654;10.326;2023-07-13T07:48:12;7.63;;;2.90;;
16673;SDS011;8450;52.654;10.326;2023-07-13T07:50:38;6.97;;;2.73;;
16673;SDS011;8450;52.654;10.326;2023-07-13T07:53:04;5.73;;;3.00;;
16673;SDS011;8450;52.654;10.326;2023-07-13T07:55:33;5.40;;;2.53;;
16673;SDS011;8450;52.654;10.326;2023-07-13T07:58:02;5.97;;;2.80;;
16673;SDS011;8450;52.654;10.326;2023-07-13T08:00:28;6.50;;;2.67;;
16673;SDS011;8450;52.654;10.326;2023-07-13T08:02:56;4.37;;;2.60;;
16673;SDS011;8450;52.654;10.326;2023-07-13T08:05:21;4.50;;;2.40;;
16673;SDS011;8450;52.654;10.326;2023-07-13T08:07:47;4.77;;;2.70;;
16673;SDS011;8450;52.654;10.326;2023-07-13T08:10:12;4.37;;;2.53;;
16673;SDS011;8450;52.654;10.326;2023-07-13T08:12:38;4.47;;;2.60;;
16673;SDS011;8450;52.654;10.326;2023-07-13T08:15:05;5.07;;;2.43;;
16673;SDS011;8450;52.654;10.326;2023-07-13T08:17:34;4.07;;;2.60;;
16673;SDS011;8450;52.654;10.326;2023-07-13T08:20:00;4.83;;;2.60;;
16673;SDS011;8450;52.654;10.326;2023-07-13T08:22:25;5.10;;;3.03;;
16673;SDS011;8450;52.654;10.326;2023-07-13T08:24:52;3.60;;;2.27;;
16673;SDS011;8450;52.654;10.326;2023-07-13T08:27:24;4.67;;;2.50;;
16673;SDS011;8450;52.654;10.326;2023-07-13T08:29:50;4.93;;;2.30;;
16673;SDS011;8450;52.654;10.326;2023-07-13T08:32:16;4.90;;;2.60;;
16673;SDS011;8450;52.654;10.326;2023-07-13T08:34:43;7.40;;;2.57;;
16673;SDS011;8450;52.654;10.326;2023-07-13T08:37:08;2.90;;;2.10;;
16673;SDS011;8450;52.654;10.326;2023-07-13T08:39:34;6.07;;;2.57;;
16673;SDS011;8450;52.654;10.326;2023-07-13T08:42:02;3.10;;;2.20;;
16673;SDS011;8450;52.654;10.326;2023-07-13T08:44:57;6.00;;;2.83;;
16673;SDS011;8450;52.654;10.326;2023-07-13T08:47:37;4.97;;;2.30;;
16673;SDS011;8450;52.654;10.326;2023-07-13T08:50:10;5.33;;;2.63;;
16673;SDS011;8450;52.654;10.326;2023-07-13T08:52:40;6.93;;;2.30;;
16673;SDS011;8450;52.654;10.326;2023-07-13T08:55:15;4.67;;;2.30;;
16673;SDS011;8450;52.654;10.326;2023-07-13T08:57:48;3.07;;;1.93;;
16673;SDS011;8450;52.654;10.326;2023-07-13T09:00:19;4.87;;;2.10;;
16673;SDS011;8450;52.654;10.326;2023-07-13T09:02:52;4.60;;;2.17;;
16673;SDS011;8450;52.654;10.326;2023-07-13T09:08:16;3.77;;;2.70;;
16673;SDS011;8450;52.654;10.326;2023-07-13T09:10:49;4.30;;;2.70;;
16673;SDS011;8450;52.654;10.326;2023-07-13T09:13:28;5.50;;;2.63;;
16673;SDS011;8450;52.654;10.326;2023-07-13T09:16:10;4.27;;;2.10;;
16673;SDS011;8450;52.654;10.326;2023-07-13T09:18:38;5.13;;;2.40;;
16673;SDS011;8450;52.654;10.326;2023-07-13T09:21:08;4.33;;;2.23;;
16673;SDS011;8450;52.654;10.326;2023-07-13T09:23:38;3.73;;;2.07;;
16673;SDS011;8450;52.654;10.326;2023-07-13T09:26:25;3.00;;;2.40;;
16673;SDS011;8450;52.654;10.326;2023-07-13T09:28:57;6.77;;;2.70;;
16673;SDS011;8450;52.654;10.326;2023-07-13T09:31:33;5.57;;;2.40;;
16673;SDS011;8450;52.654;10.326;2023-07-13T09:34:04;3.47;;;2.30;;
16673;SDS011;8450;52.654;10.326;2023-07-13T09:36:34;5.77;;;2.43;;
16673;SDS011;8450;52.654;10.326;2023-07-13T09:41:47;3.50;;;2.23;;
16673;SDS011;8450;52.654;10.326;2023-07-13T09:44:51;4.37;;;2.53;;
16673;SDS011;8450;52.654;10.326;2023-07-13T09:47:18;4.47;;;2.33;;
16673;SDS011;8450;52.654;10.326;2023-07-13T09:49:47;5.10;;;2.40;;
16673;SDS011;8450;52.654;10.326;2023-07-13T09:52:18;5.67;;;2.53;;
16673;SDS011;8450;52.654;10.326;2023-07-13T09:54:44;3.80;;;2.67;;
16673;SDS011;8450;52.654;10.326;2023-07-13T09:57:14;6.07;;;2.87;;
16673;SDS011;8450;52.654;10.326;2023-07-13T09:59:43;3.43;;;2.50;;
16673;SDS011;8450;52.654;10.326;2023-07-13T10:05:01;5.53;;;2.90;;
16673;SDS011;8450;52.654;10.326;2023-07-13T10:07:32;2.87;;;2.17;;
16673;SDS011;8450;52.654;10.326;2023-07-13T10:10:12;4.57;;;2.57;;
16673;SDS011;8450;52.654;10.326;2023-07-13T10:12:48;5.67;;;2.60;;
16673;SDS011;8450;52.654;10.326;2023-07-13T10:15:16;3.93;;;2.30;;
16673;SDS011;8450;52.654;10.326;2023-07-13T10:17:45;3.97;;;2.40;;
16673;SDS011;8450;52.654;10.326;2023-07-13T10:20:11;4.07;;;2.43;;
16673;SDS011;8450;52.654;10.326;2023-07-13T10:22:45;3.60;;;2.00;;
16673;SDS011;8450;52.654;10.326;2023-07-13T10:25:31;3.67;;;2.13;;
16673;SDS011;8450;52.654;10.326;2023-07-13T10:28:35;4.63;;;2.30;;
16673;SDS011;8450;52.654;10.326;2023-07-13T10:30:56;4.37;;;2.10;;
16673;SDS011;8450;52.654;10.326;2023-07-13T10:33:25;6.07;;;2.50;;
16673;SDS011;8450;52.654;10.326;2023-07-13T10:35:53;4.50;;;2.40;;
16673;SDS011;8450;52.654;10.326;2023-07-13T10:38:26;5.23;;;2.57;;
16673;SDS011;8450;52.654;10.326;2023-07-13T10:41:05;5.57;;;2.37;;
16673;SDS011;8450;52.654;10.326;2023-07-13T10:43:36;4.47;;;2.33;;
16673;SDS011;8450;52.654;10.326;2023-07-13T10:46:07;4.80;;;2.27;;
16673;SDS011;8450;52.654;10.326;2023-07-13T10:48:35;3.57;;;2.20;;
16673;SDS011;8450;52.654;10.326;2023-07-13T10:51:03;6.10;;;2.47;;
16673;SDS011;8450;52.654;10.326;2023-07-13T10:53:35;6.30;;;2.33;;
16673;SDS011;8450;52.654;10.326;2023-07-13T10:56:24;4.23;;;2.17;;
16673;SDS011;8450;52.654;10.326;2023-07-13T10:59:09;3.13;;;2.07;;
16673;SDS011;8450;52.654;10.326;2023-07-13T11:01:50;5.57;;;2.67;;
16673;SDS011;8450;52.654;10.326;2023-07-13T11:04:21;5.43;;;2.97;;
16673;SDS011;8450;52.654;10.326;2023-07-13T11:06:50;5.50;;;2.90;;
16673;SDS011;8450;52.654;10.326;2023-07-13T11:11:56;8.73;;;2.27;;
16673;SDS011;8450;52.654;10.326;2023-07-13T11:14:35;5.10;;;2.43;;
16673;SDS011;8450;52.654;10.326;2023-07-13T11:17:25;3.97;;;2.47;;
16673;SDS011;8450;52.654;10.326;2023-07-13T11:22:49;5.57;;;2.40;;
16673;SDS011;8450;52.654;10.326;2023-07-13T11:25:33;3.17;;;2.33;;
16673;SDS011;8450;52.654;10.326;2023-07-13T11:30:38;3.70;;;2.43;;
16673;SDS011;8450;52.654;10.326;2023-07-13T11:35:57;4.23;;;2.63;;
16673;SDS011;8450;52.654;10.326;2023-07-13T11:41:01;2.17;;;1.97;;
16673;SDS011;8450;52.654;10.326;2023-07-13T11:43:38;3.70;;;2.30;;
16673;SDS011;8450;52.654;10.326;2023-07-13T11:48:48;5.13;;;2.40;;
16673;SDS011;8450;52.654;10.326;2023-07-13T11:51:31;4.77;;;2.60;;
16673;SDS011;8450;52.654;10.326;2023-07-13T11:54:10;5.73;;;2.33;;
16673;SDS011;8450;52.654;10.326;2023-07-13T11:57:12;3.13;;;2.50;;
16673;SDS011;8450;52.654;10.326;2023-07-13T11:59:49;3.37;;;2.13;;
16673;SDS011;8450;52.654;10.326;2023-07-13T12:02:27;2.57;;;2.13;;
16673;SDS011;8450;52.654;10.326;2023-07-13T12:04:56;2.83;;;2.20;;
16673;SDS011;8450;52.654;10.326;2023-07-13T12:07:22;2.53;;;2.00;;
16673;SDS011;8450;52.654;10.326;2023-07-13T12:09:48;3.27;;;2.03;;
16673;SDS011;8450;52.654;10.326;2023-07-13T12:12:20;4.47;;;2.03;;
16673;SDS011;8450;52.654;10.326;2023-07-13T12:14:50;4.83;;;2.50;;
16673;SDS011;8450;52.654;10.326;2023-07-13T12:17:21;3.60;;;2.10;;
16673;SDS011;8450;52.654;10.326;2023-07-13T12:19:48;3.10;;;2.17;;
16673;SDS011;8450;52.654;10.326;2023-07-13T12:22:16;2.90;;;2.33;;
16673;SDS011;8450;52.654;10.326;2023-07-13T12:24:43;3.30;;;2.00;;
16673;SDS011;8450;52.654;10.326;2023-07-13T12:27:17;2.70;;;2.27;;
16673;SDS011;8450;52.654;10.326;2023-07-13T12:29:52;3.13;;;2.20;;
16673;SDS011;8450;52.654;10.326;2023-07-13T12:32:24;4.00;;;2.20;;
16673;SDS011;8450;52.654;10.326;2023-07-13T12:35:13;2.90;;;2.30;;
16673;SDS011;8450;52.654;10.326;2023-07-13T12:37:43;3.67;;;2.10;;
16673;SDS011;8450;52.654;10.326;2023-07-13T12:40:18;2.60;;;2.40;;
16673;SDS011;8450;52.654;10.326;2023-07-13T12:42:48;3.03;;;2.30;;
16673;SDS011;8450;52.654;10.326;2023-07-13T12:47:53;4.17;;;2.40;;
16673;SDS011;8450;52.654;10.326;2023-07-13T12:50:23;5.27;;;2.60;;
16673;SDS011;8450;52.654;10.326;2023-07-13T12:52:56;3.03;;;2.60;;
16673;SDS011;8450;52.654;10.326;2023-07-13T12:55:28;3.57;;;2.17;;
16673;SDS011;8450;52.654;10.326;2023-07-13T12:57:57;3.13;;;2.10;;
16673;SDS011;8450;52.654;10.326;2023-07-13T13:06:01;3.63;;;2.37;;
16673;SDS011;8450;52.654;10.326;2023-07-13T13:08:33;7.23;;;2.40;;
16673;SDS011;8450;52.654;10.326;2023-07-13T13:11:03;3.20;;;2.50;;
16673;SDS011;8450;52.654;10.326;2023-07-13T13:13:29;2.53;;;2.20;;
16673;SDS011;8450;52.654;10.326;2023-07-13T13:15:55;3.33;;;2.20;;
16673;SDS011;8450;52.654;10.326;2023-07-13T13:18:23;4.03;;;2.23;;
16673;SDS011;8450;52.654;10.326;2023-07-13T13:20:49;5.13;;;2.70;;
16673;SDS011;8450;52.654;10.326;2023-07-13T13:23:16;4.00;;;2.50;;
16673;SDS011;8450;52.654;10.326;2023-07-13T13:25:47;2.70;;;2.40;;
16673;SDS011;8450;52.654;10.326;2023-07-13T13:28:18;2.90;;;2.60;;
16673;SDS011;8450;52.654;10.326;2023-07-13T13:30:45;6.40;;;2.73;;
16673;SDS011;8450;52.654;10.326;2023-07-13T13:33:14;3.80;;;2.53;;
16673;SDS011;8450;52.654;10.326;2023-07-13T13:35:42;3.30;;;2.47;;
16673;SDS011;8450;52.654;10.326;2023-07-13T13:38:09;2.97;;;2.67;;
16673;SDS011;8450;52.654;10.326;2023-07-13T13:40:37;2.97;;;2.40;;
16673;SDS011;8450;52.654;10.326;2023-07-13T13:43:04;3.10;;;2.37;;
16673;SDS011;8450;52.654;10.326;2023-07-13T14:08:32;5.20;;;4.70;;
16673;SDS011;8450;52.654;10.326;2023-07-13T14:10:58;7.07;;;4.50;;
16673;SDS011;8450;52.654;10.326;2023-07-13T14:13:28;4.83;;;3.77;;
16673;SDS011;8450;52.654;10.326;2023-07-13T14:15:58;4.77;;;3.80;;
16673;SDS011;8450;52.654;10.326;2023-07-13T14:18:24;4.50;;;4.10;;
16673;SDS011;8450;52.654;10.326;2023-07-13T14:20:50;3.90;;;3.60;;
16673;SDS011;8450;52.654;10.326;2023-07-13T14:23:17;4.67;;;4.07;;
16673;SDS011;8450;52.654;10.326;2023-07-13T14:25:44;5.33;;;3.97;;
16673;SDS011;8450;52.654;10.326;2023-07-13T14:28:17;4.50;;;4.10;;
16673;SDS011;8450;52.654;10.326;2023-07-13T14:30:51;4.77;;;4.37;;
16673;SDS011;8450;52.654;10.326;2023-07-13T14:33:19;5.10;;;3.80;;
16673;SDS011;8450;52.654;10.326;2023-07-13T14:35:45;4.03;;;3.63;;
16673;SDS011;8450;52.654;10.326;2023-07-13T14:38:13;5.60;;;4.13;;
16673;SDS011;8450;52.654;10.326;2023-07-13T14:40:42;4.27;;;3.60;;
16673;SDS011;8450;52.654;10.326;2023-07-13T14:43:12;4.53;;;4.13;;
16673;SDS011;8450;52.654;10.326;2023-07-13T14:45:43;4.80;;;4.27;;
16673;SDS011;8450;52.654;10.326;2023-07-13T14:48:13;3.53;;;3.23;;
16673;SDS011;8450;52.654;10.326;2023-07-13T14:50:44;4.50;;;4.10;;
16673;SDS011;8450;52.654;10.326;2023-07-13T14:53:11;3.97;;;3.67;;
16673;SDS011;8450;52.654;10.326;2023-07-13T14:55:37;4.33;;;3.93;;
16673;SDS011;8450;52.654;10.326;2023-07-13T14:58:03;4.00;;;3.50;;
16673;SDS011;8450;52.654;10.326;2023-07-13T15:00:29;4.40;;;3.20;;
16673;SDS011;8450;52.654;10.326;2023-07-13T15:02:56;5.63;;;3.33;;
16673;SDS011;8450;52.654;10.326;2023-07-13T15:05:25;5.83;;;3.43;;
16673;SDS011;8450;52.654;10.326;2023-07-13T15:07:56;4.23;;;3.33;;
16673;SDS011;8450;52.654;10.326;2023-07-13T15:10:25;3.97;;;3.63;;
16673;SDS011;8450;52.654;10.326;2023-07-13T15:13:01;4.20;;;3.90;;
16673;SDS011;8450;52.654;10.326;2023-07-13T15:15:43;3.47;;;3.10;;
16673;SDS011;8450;52.654;10.326;2023-07-13T15:18:12;4.13;;;3.63;;
16673;SDS011;8450;52.654;10.326;2023-07-13T15:20:42;4.67;;;4.07;;
16673;SDS011;8450;52.654;10.326;2023-07-13T15:23:10;3.83;;;3.50;;
16673;SDS011;8450;52.654;10.326;2023-07-13T15:25:37;3.23;;;2.97;;
16673;SDS011;8450;52.654;10.326;2023-07-13T15:28:03;4.87;;;3.50;;
16673;SDS011;8450;52.654;10.326;2023-07-13T15:30:30;4.30;;;3.40;;
16673;SDS011;8450;52.654;10.326;2023-07-13T15:33:05;5.20;;;3.73;;
16673;SDS011;8450;52.654;10.326;2023-07-13T16:09:19;3.63;;;2.70;;
16673;SDS011;8450;52.654;10.326;2023-07-13T16:11:48;4.00;;;3.00;;
16673;SDS011;8450;52.654;10.326;2023-07-13T16:14:15;3.53;;;3.23;;
16673;SDS011;8450;52.654;10.326;2023-07-13T16:16:41;3.40;;;3.20;;
16673;SDS011;8450;52.654;10.326;2023-07-13T16:19:08;3.57;;;3.23;;
16673;SDS011;8450;52.654;10.326;2023-07-13T16:21:40;4.07;;;3.43;;
16673;SDS011;8450;52.654;10.326;2023-07-13T16:24:14;3.83;;;3.13;;
16673;SDS011;8450;52.654;10.326;2023-07-13T16:26:45;3.33;;;2.83;;
16673;SDS011;8450;52.654;10.326;2023-07-13T16:29:12;2.77;;;2.50;;
16673;SDS011;8450;52.654;10.326;2023-07-13T16:31:38;2.87;;;2.60;;
16673;SDS011;8450;52.654;10.326;2023-07-13T16:34:04;3.80;;;3.10;;
16673;SDS011;8450;52.654;10.326;2023-07-13T16:36:30;2.80;;;2.60;;
16673;SDS011;8450;52.654;10.326;2023-07-13T16:38:57;2.83;;;2.57;;
16673;SDS011;8450;52.654;10.326;2023-07-13T16:41:23;3.13;;;2.80;;
16673;SDS011;8450;52.654;10.326;2023-07-13T16:43:49;2.63;;;2.43;;
16673;SDS011;8450;52.654;10.326;2023-07-13T16:46:21;2.47;;;2.20;;
16673;SDS011;8450;52.654;10.326;2023-07-13T16:48:48;2.50;;;2.30;;
16673;SDS011;8450;52.654;10.326;2023-07-13T16:51:14;3.53;;;2.43;;
16673;SDS011;8450;52.654;10.326;2023-07-13T16:53:40;3.20;;;2.80;;
16673;SDS011;8450;52.654;10.326;2023-07-13T16:56:08;4.30;;;2.87;;
16673;SDS011;8450;52.654;10.326;2023-07-13T16:58:41;3.47;;;2.77;;
16673;SDS011;8450;52.654;10.326;2023-07-13T17:01:07;3.00;;;2.20;;
16673;SDS011;8450;52.654;10.326;2023-07-13T17:03:33;2.60;;;2.40;;
16673;SDS011;8450;52.654;10.326;2023-07-13T17:05:58;2.40;;;2.20;;
16673;SDS011;8450;52.654;10.326;2023-07-13T17:08:27;2.50;;;2.30;;
16673;SDS011;8450;52.654;10.326;2023-07-13T17:11:03;2.33;;;2.17;;
16673;SDS011;8450;52.654;10.326;2023-07-13T17:13:29;2.83;;;2.60;;
16673;SDS011;8450;52.654;10.326;2023-07-13T17:15:56;4.33;;;2.90;;
16673;SDS011;8450;52.654;10.326;2023-07-13T17:18:23;2.60;;;2.40;;
16673;SDS011;8450;52.654;10.326;2023-07-13T17:20:53;3.10;;;2.70;;
16673;SDS011;8450;52.654;10.326;2023-07-13T17:23:20;3.20;;;2.40;;
16673;SDS011;8450;52.654;10.326;2023-07-13T17:25:48;2.93;;;2.40;;
16673;SDS011;8450;52.654;10.326;2023-07-13T17:28:17;2.87;;;2.63;;
16673;SDS011;8450;52.654;10.326;2023-07-13T17:30:46;4.83;;;2.70;;
16673;SDS011;8450;52.654;10.326;2023-07-13T17:33:19;3.17;;;2.67;;
16673;SDS011;8450;52.654;10.326;2023-07-13T17:36:01;2.50;;;2.23;;
